createdAt,value
2022-11-28T13:12:55.615Z,74.40
2022-11-28T13:15:38.118Z,76.30
2022-11-28T13:18:22.396Z,78.70
2022-11-28T13:20:56.741Z,80.40
2022-11-28T13:23:30.164Z,81.60
2022-11-28T13:26:06.268Z,82.60
2022-11-28T13:28:43.765Z,83.30
2022-11-28T13:31:21.257Z,83.70
2022-11-28T13:33:52.783Z,84.10
2022-11-28T13:39:30.823Z,84.40
2022-11-28T13:42:28.800Z,84.60
2022-11-28T13:45:02.391Z,84.70
2022-11-28T13:47:34.887Z,85.40
2022-11-28T13:50:39.153Z,84.90
2022-11-28T13:53:24.637Z,84.90
2022-11-28T13:56:15.852Z,84.70
2022-11-28T13:58:52.082Z,84.80
2022-11-28T14:01:23.646Z,84.70
2022-11-28T14:04:02.754Z,84.70
2022-11-28T14:06:40.919Z,84.70
2022-11-28T14:09:27.829Z,84.70
2022-11-28T14:12:11.081Z,84.70
2022-11-28T14:14:54.500Z,84.60
2022-11-28T14:17:38.978Z,83.40
2022-11-28T14:20:20.460Z,83.50
2022-11-28T14:23:00.587Z,83.40
2022-11-28T14:25:32.298Z,83.40
2022-11-28T14:28:03.108Z,83.40
2022-11-28T14:30:35.157Z,83.40
2022-11-28T14:33:15.850Z,83.50
2022-11-28T14:36:22.158Z,83.40
2022-11-28T14:39:12.813Z,83.40
2022-11-28T14:42:43.986Z,83.30
2022-11-28T14:45:40.638Z,83.30
2022-11-28T14:48:19.925Z,83.10
2022-11-28T14:50:59.298Z,83.00
2022-11-28T14:53:47.857Z,83.00
2022-11-28T14:56:28.869Z,83.10
2022-11-28T14:59:01.241Z,83.10
2022-11-28T15:01:46.160Z,83.10
2022-11-28T15:04:45.726Z,82.90
2022-11-28T15:07:29.570Z,82.90
2022-11-28T15:10:07.881Z,82.70
2022-11-28T15:12:45.526Z,82.80
2022-11-28T15:15:16.921Z,82.80
2022-11-28T15:17:51.271Z,82.80
2022-11-28T15:20:27.677Z,82.80
2022-11-28T15:22:56.006Z,82.80
2022-11-28T15:25:26.750Z,82.70
2022-11-28T15:27:55.441Z,82.70
2022-11-28T15:30:26.526Z,82.70
2022-11-28T15:32:58.362Z,82.70
2022-11-28T15:35:29.451Z,82.70
2022-11-28T15:37:59.285Z,82.70
2022-11-28T15:40:30.708Z,82.70
2022-11-28T15:43:00.507Z,82.60
2022-11-28T15:45:31.900Z,82.60
2022-11-28T15:48:00.102Z,82.70
2022-11-28T15:50:31.240Z,82.70
2022-11-28T15:53:00.934Z,82.70
2022-11-28T15:55:31.434Z,82.70
2022-11-28T15:58:20.909Z,82.80
2022-11-28T16:00:53.368Z,82.90
2022-11-28T16:03:25.660Z,82.80
2022-11-28T16:05:56.890Z,82.80
2022-11-28T16:08:28.668Z,82.90
2022-11-28T16:10:57.648Z,83.60
2022-11-28T16:13:26.421Z,82.80
2022-11-28T16:15:58.350Z,82.80
2022-11-28T16:18:28.311Z,82.70
2022-11-28T16:21:01.221Z,82.80
2022-11-28T16:23:33.567Z,82.70
2022-11-28T16:26:03.494Z,82.70
2022-11-28T16:28:34.719Z,82.80
2022-11-28T16:31:03.548Z,82.70
2022-11-28T16:33:40.117Z,82.70
2022-11-28T16:36:20.167Z,82.80
2022-11-28T16:38:50.049Z,82.80
2022-11-28T16:41:21.230Z,82.90
2022-11-28T16:43:53.902Z,83.00
2022-11-28T16:46:23.816Z,83.00
2022-11-28T16:48:56.601Z,83.10
2022-11-28T16:51:38.003Z,83.00
2022-11-28T16:54:32.833Z,83.00
2022-11-28T16:57:12.749Z,82.90
2022-11-28T16:59:41.623Z,82.90
2022-11-28T17:02:17.724Z,82.90
2022-11-28T17:04:47.084Z,82.90
2022-11-28T17:07:19.041Z,82.90
2022-11-28T17:09:48.613Z,83.00
2022-11-28T17:12:24.622Z,83.00
2022-11-28T17:14:53.395Z,83.00
2022-11-28T17:17:23.225Z,83.00
2022-11-28T17:19:51.880Z,83.00
2022-11-28T17:22:24.046Z,83.00
2022-11-28T17:25:00.737Z,82.90
2022-11-28T17:27:29.034Z,82.90
2022-11-28T17:29:57.285Z,82.90
2022-11-28T17:32:26.022Z,82.90
2022-11-28T17:34:54.200Z,82.90
2022-11-28T17:37:23.877Z,82.90
2022-11-28T17:40:14.951Z,82.90
2022-11-28T17:42:43.170Z,82.90
2022-11-28T17:45:15.796Z,82.90
2022-11-28T17:47:44.066Z,83.10
2022-11-28T17:50:12.424Z,83.00
2022-11-28T17:52:42.088Z,83.10
2022-11-28T17:55:10.730Z,83.00
2022-11-28T17:57:38.943Z,83.10
2022-11-28T18:00:09.276Z,83.80
2022-11-28T18:02:38.721Z,83.10
2022-11-28T18:05:08.591Z,83.20
2022-11-28T18:07:37.035Z,83.20
2022-11-28T18:10:08.230Z,83.10
2022-11-28T18:12:37.141Z,83.10
2022-11-28T18:15:07.153Z,83.00
2022-11-28T18:17:35.553Z,83.00
2022-11-28T18:20:05.190Z,83.10
2022-11-28T18:22:33.376Z,83.10
2022-11-28T18:25:01.580Z,83.20
2022-11-28T18:27:31.241Z,83.90
2022-11-28T18:29:59.560Z,83.20
2022-11-28T18:32:27.862Z,83.20
2022-11-28T18:34:56.032Z,83.10
2022-11-28T18:37:24.222Z,83.20
2022-11-28T18:39:52.552Z,83.20
2022-11-28T18:42:20.912Z,83.20
2022-11-28T18:44:50.563Z,83.20
2022-11-28T18:47:18.737Z,83.00
2022-11-28T18:49:47.064Z,83.10
2022-11-28T18:52:15.336Z,83.20
2022-11-28T18:54:44.799Z,83.20
2022-11-28T18:57:13.067Z,83.10
2022-11-28T18:59:43.409Z,83.10
2022-11-28T19:02:16.275Z,83.10
2022-11-28T19:04:44.497Z,83.10
2022-11-28T19:07:12.673Z,83.10
2022-11-28T19:09:41.182Z,83.10
2022-11-28T19:12:09.561Z,83.10
2022-11-28T19:14:37.766Z,83.10
2022-11-28T19:17:07.804Z,83.00
2022-11-28T19:19:39.773Z,82.90
2022-11-28T19:22:08.163Z,82.80
2022-11-28T19:24:37.812Z,82.70
2022-11-28T19:27:12.537Z,82.80
2022-11-28T19:29:42.792Z,82.80
2022-11-28T19:32:11.357Z,83.00
2022-11-28T19:34:40.904Z,83.00
2022-11-28T19:37:09.136Z,83.10
2022-11-28T19:39:37.338Z,83.10
2022-11-28T19:42:06.062Z,83.10
2022-11-28T19:44:34.616Z,83.10
2022-11-28T19:47:02.811Z,83.20
2022-11-28T19:49:31.115Z,83.30
2022-11-28T19:52:00.772Z,83.30
2022-11-28T19:54:30.077Z,83.40
2022-11-28T19:56:58.468Z,83.50
2022-11-28T19:59:27.267Z,83.50
2022-11-28T20:01:55.545Z,83.50
2022-11-28T20:04:23.888Z,84.50
2022-11-28T20:06:52.301Z,83.60
2022-11-28T20:09:21.914Z,83.60
2022-11-28T20:11:50.272Z,84.30
2022-11-28T20:14:20.760Z,83.70
2022-11-28T20:16:49.094Z,83.80
2022-11-28T20:19:18.220Z,83.90
2022-11-28T20:21:47.049Z,83.90
2022-11-28T20:24:15.807Z,83.90
2022-11-28T20:26:45.481Z,83.90
2022-11-28T20:29:16.237Z,83.90
2022-11-28T20:31:46.341Z,83.90
2022-11-28T20:34:15.649Z,84.00
2022-11-28T20:36:44.234Z,83.90
2022-11-28T20:39:13.537Z,83.90
2022-11-28T20:41:41.844Z,83.90
2022-11-28T20:44:12.135Z,83.90
2022-11-28T20:46:40.406Z,84.00
2022-11-28T20:49:08.969Z,83.80
2022-11-28T20:51:37.332Z,83.90
2022-11-28T20:54:07.122Z,83.80
2022-11-28T20:57:05.205Z,84.50
2022-11-28T20:59:28.782Z,83.70
2022-11-28T21:01:57.032Z,83.70
2022-11-28T21:04:25.351Z,83.50
2022-11-28T21:06:53.865Z,83.50
2022-11-28T21:09:22.032Z,84.00
2022-11-28T21:11:57.439Z,83.40
2022-11-28T21:14:29.401Z,83.40
2022-11-28T21:16:58.439Z,83.20
2022-11-28T21:19:27.366Z,83.20
2022-11-28T21:21:55.536Z,83.20
2022-11-28T21:24:23.779Z,84.30
2022-11-28T21:26:54.266Z,84.30
2022-11-28T21:29:24.387Z,85.00
2022-11-28T21:31:54.737Z,84.40
2022-11-28T21:34:23.199Z,84.30
2022-11-28T21:36:51.485Z,84.30
2022-11-28T21:39:22.420Z,84.30
2022-11-28T21:41:51.905Z,84.40
2022-11-28T21:44:21.943Z,84.40
2022-11-28T21:46:50.236Z,84.40
2022-11-28T21:49:20.001Z,85.20
2022-11-28T21:51:48.231Z,84.70
2022-11-28T21:54:16.413Z,84.80
2022-11-28T21:56:44.599Z,84.80
2022-11-28T21:59:12.764Z,84.80
2022-11-28T22:01:41.478Z,84.80
2022-11-28T22:04:10.906Z,84.70
2022-11-28T22:06:40.585Z,84.80
2022-11-28T22:09:09.812Z,84.80
2022-11-28T22:11:39.195Z,84.70
2022-11-28T22:14:07.526Z,84.70
2022-11-28T22:16:35.968Z,84.70
2022-11-28T22:19:04.194Z,84.70
2022-11-28T22:24:22.804Z,84.70
2022-11-28T22:26:51.093Z,84.50
2022-11-28T22:29:19.374Z,84.40
2022-11-28T22:31:47.793Z,84.20
2022-11-28T22:34:16.231Z,84.20
2022-11-28T22:36:44.412Z,84.10
2022-11-28T22:39:12.637Z,84.20
2022-11-28T22:41:42.323Z,84.20
2022-11-28T22:44:12.286Z,84.30
2022-11-28T22:46:40.540Z,84.30
2022-11-28T22:49:08.793Z,84.30
2022-11-28T22:51:37.518Z,84.30
2022-11-28T22:54:06.002Z,84.30
2022-11-28T22:56:35.003Z,84.30
2022-11-28T22:59:05.660Z,84.20
2022-11-28T23:01:34.386Z,84.90
2022-11-28T23:04:02.564Z,84.30
2022-11-28T23:06:32.615Z,84.20
2022-11-28T23:09:02.250Z,84.10
2022-11-28T23:11:33.030Z,84.00
2022-11-28T23:14:02.598Z,84.00
2022-11-28T23:16:33.465Z,84.10
2022-11-28T23:19:03.766Z,84.10
2022-11-28T23:21:34.480Z,84.10
2022-11-28T23:24:02.706Z,84.00
2022-11-28T23:26:32.533Z,83.90
2022-11-28T23:29:01.584Z,83.90
2022-11-28T23:31:33.108Z,83.90
2022-11-28T23:34:02.174Z,83.80
2022-11-28T23:36:35.683Z,83.90
2022-11-28T23:39:10.760Z,83.90
2022-11-28T23:41:38.943Z,83.90
2022-11-28T23:44:07.387Z,84.00
2022-11-28T23:46:36.963Z,84.10
2022-11-28T23:49:05.674Z,84.10
2022-11-28T23:51:34.072Z,84.20
2022-11-28T23:54:02.496Z,84.20
2022-11-28T23:56:33.516Z,84.30
2022-11-28T23:59:05.120Z,84.40
